Time;durP1;ratioP1;P1;durP2;ratioP2;P2;SDS_P1;SDS_P2;PMS_P1;PMS_P2;Temp;Humidity;BMP_temperature;BMP_pressure;BME280_temperature;BME280_humidity;BME280_pressure;Samples;Min_cycle;Max_cycle;Signal;HPM_P1;HPM_P2
2022/11/22 00:02:17;;;;;;;;;;;16.90;46.60;;;;;;8331998;28;19953;-46
2022/11/22 00:06:17;;;;;;;;;;;16.90;46.60;;;;;;8332686;28;19914;-45
2022/11/22 00:10:18;;;;;;;;;;;16.80;46.60;;;;;;8331992;28;20430;-45
2022/11/22 00:14:18;;;;;;;;;;;16.90;46.70;;;;;;8332380;28;19921;-45
2022/11/22 00:18:19;;;;;;;;;;;16.90;46.60;;;;;;8332052;28;20385;-45
2022/11/22 00:22:19;;;;;;;;;;;16.80;46.60;;;;;;8331483;28;19928;-46
2022/11/22 00:26:20;;;;;;;;;;;16.90;46.60;;;;;;8331611;28;19921;-45
2022/11/22 00:30:20;;;;;;;;;;;16.80;46.60;;;;;;8331681;28;19921;-45
2022/11/22 00:34:20;;;;;;;;;;;16.80;46.60;;;;;;8331534;28;19968;-45
2022/11/22 00:38:21;;;;;;;;;;;16.80;46.60;;;;;;8331691;28;19925;-44
2022/11/22 00:42:21;;;;;;;;;;;16.80;46.60;;;;;;8331274;28;20290;-44
2022/11/22 00:46:22;;;;;;;;;;;16.80;46.70;;;;;;8331822;28;19917;-45
2022/11/22 00:50:22;;;;;;;;;;;16.80;46.70;;;;;;8331422;28;19932;-44
2022/11/22 00:54:23;;;;;;;;;;;16.80;46.70;;;;;;8331120;28;19913;-45
2022/11/22 00:58:23;;;;;;;;;;;16.80;46.70;;;;;;8362499;28;20415;-45
2022/11/22 01:02:24;;;;;;;;;;;16.90;46.80;;;;;;8364162;28;19917;-46
2022/11/22 01:06:24;;;;;;;;;;;16.80;46.90;;;;;;8363569;28;20369;-47
2022/11/22 01:10:24;;;;;;;;;;;16.90;46.90;;;;;;8363989;28;19971;-45
2022/11/22 01:14:25;;;;;;;;;;;16.90;46.80;;;;;;8364280;28;19916;-45
2022/11/22 01:18:25;;;;;;;;;;;16.90;46.80;;;;;;8363249;28;19925;-44
2022/11/22 01:22:26;;;;;;;;;;;16.90;46.80;;;;;;8363513;28;19921;-45
2022/11/22 01:26:26;;;;;;;;;;;16.90;46.80;;;;;;8363421;28;20301;-45
2022/11/22 01:30:27;;;;;;;;;;;16.90;46.70;;;;;;8362873;28;19920;-45
2022/11/22 01:34:27;;;;;;;;;;;16.90;46.80;;;;;;8363442;28;19921;-45
2022/11/22 01:38:28;;;;;;;;;;;16.90;46.80;;;;;;8363144;28;19925;-45
2022/11/22 01:42:40;;;;;;;;;;;16.90;46.80;;;;;;8362584;28;19916;-45
2022/11/22 01:46:41;;;;;;;;;;;17.00;46.90;;;;;;8363114;28;19916;-45
2022/11/22 01:50:42;;;;;;;;;;;16.90;46.80;;;;;;8362912;28;19924;-45
2022/11/22 01:54:45;;;;;;;;;;;16.90;46.80;;;;;;8362722;28;20378;-46
2022/11/22 01:58:48;;;;;;;;;;;16.90;46.90;;;;;;8363050;28;20305;-45
2022/11/22 02:02:56;;;;;;;;;;;16.90;46.90;;;;;;8363027;28;19921;-45
2022/11/22 02:07:03;;;;;;;;;;;16.90;46.80;;;;;;8360090;28;19925;-44
2022/11/22 02:11:04;;;;;;;;;;;16.90;46.80;;;;;;8329884;28;19913;-45
2022/11/22 02:15:06;;;;;;;;;;;16.90;46.90;;;;;;8329911;28;19922;-45
2022/11/22 02:19:13;;;;;;;;;;;16.90;46.80;;;;;;8329305;28;19929;-46
2022/11/22 02:23:25;;;;;;;;;;;16.90;46.80;;;;;;8331460;28;19924;-45
2022/11/22 02:27:26;;;;;;;;;;;16.90;46.90;;;;;;8335627;28;19913;-44
2022/11/22 02:31:38;;;;;;;;;;;16.90;46.90;;;;;;8335868;28;19922;-45
2022/11/22 02:35:40;;;;;;;;;;;16.80;46.90;;;;;;8335840;28;19922;-46
2022/11/22 02:39:42;;;;;;;;;;;16.80;46.80;;;;;;8335426;28;19968;-45
2022/11/22 02:43:44;;;;;;;;;;;16.80;46.80;;;;;;8335571;28;19918;-45
2022/11/22 02:47:45;;;;;;;;;;;16.80;46.80;;;;;;8335364;28;19917;-45
2022/11/22 02:51:45;;;;;;;;;;;16.90;46.90;;;;;;8334774;28;20401;-45
2022/11/22 02:55:46;;;;;;;;;;;16.90;46.90;;;;;;8335012;28;20028;-45
2022/11/22 02:59:46;;;;;;;;;;;16.90;46.90;;;;;;8335103;28;19944;-44
2022/11/22 03:03:46;;;;;;;;;;;16.80;46.90;;;;;;8334431;28;19917;-45
2022/11/22 03:07:48;;;;;;;;;;;16.80;46.90;;;;;;8334611;28;19928;-45
2022/11/22 03:11:49;;;;;;;;;;;16.80;46.90;;;;;;8334637;28;19920;-45
2022/11/22 03:15:49;;;;;;;;;;;16.80;46.90;;;;;;8334157;28;19925;-44
2022/11/22 03:19:49;;;;;;;;;;;16.80;46.90;;;;;;8334620;28;20297;-44
2022/11/22 03:23:50;;;;;;;;;;;16.80;47.40;;;;;;8334432;28;20400;-45
2022/11/22 03:27:50;;;;;;;;;;;16.80;46.90;;;;;;8333830;28;19918;-46
2022/11/22 03:31:51;;;;;;;;;;;16.80;46.90;;;;;;8333974;28;20277;-45
2022/11/22 03:35:54;;;;;;;;;;;16.80;46.90;;;;;;8332778;28;20388;-45
2022/11/22 03:39:55;;;;;;;;;;;16.80;46.90;;;;;;8333465;28;19932;-46
2022/11/22 03:43:55;;;;;;;;;;;16.80;46.90;;;;;;8333581;28;19999;-45
2022/11/22 03:47:56;;;;;;;;;;;16.80;46.90;;;;;;8333566;28;19914;-44
2022/11/22 03:51:56;;;;;;;;;;;16.80;46.90;;;;;;8332928;28;19927;-44
2022/11/22 03:55:57;;;;;;;;;;;16.80;46.90;;;;;;8333097;28;19932;-44
2022/11/22 03:59:57;;;;;;;;;;;16.80;46.90;;;;;;8333435;28;20293;-44
2022/11/22 04:03:58;;;;;;;;;;;16.80;46.90;;;;;;8332369;28;19917;-44
2022/11/22 04:07:58;;;;;;;;;;;16.80;47.00;;;;;;8332488;28;19944;-45
2022/11/22 04:11:59;;;;;;;;;;;16.80;46.90;;;;;;8332921;28;20392;-45
2022/11/22 04:15:59;;;;;;;;;;;16.80;47.30;;;;;;8332061;28;20023;-45
2022/11/22 04:28:37;;;;;;;;;;;16.80;47.00;;;;;;8331927;28;19928;-45
2022/11/22 04:32:44;;;;;;;;;;;16.80;47.00;;;;;;8331827;28;20015;-45
2022/11/22 04:36:44;;;;;;;;;;;16.80;47.00;;;;;;8331532;28;19929;-44
2022/11/22 04:40:45;;;;;;;;;;;16.80;46.90;;;;;;8332164;28;19913;-45
2022/11/22 04:44:46;;;;;;;;;;;16.80;47.00;;;;;;8331825;28;20346;-45
2022/11/22 04:48:46;;;;;;;;;;;16.80;46.90;;;;;;8330880;28;19918;-45
2022/11/22 04:52:53;;;;;;;;;;;16.80;46.90;;;;;;8331466;28;19921;-45
2022/11/22 04:56:53;;;;;;;;;;;16.80;46.90;;;;;;8331480;28;19963;-46
2022/11/22 05:00:54;;;;;;;;;;;16.80;46.90;;;;;;8331080;28;19917;-44
2022/11/22 05:04:54;;;;;;;;;;;16.90;47.00;;;;;;8305002;28;19918;-44
2022/11/22 05:08:55;;;;;;;;;;;16.80;46.90;;;;;;8320173;28;19928;-45
2022/11/22 05:12:55;;;;;;;;;;;16.80;46.90;;;;;;8330468;28;19935;-45
2022/11/22 05:16:55;;;;;;;;;;;16.80;47.00;;;;;;8330861;28;19928;-45
2022/11/22 05:20:56;;;;;;;;;;;16.80;47.00;;;;;;8330856;28;20393;-45
2022/11/22 05:24:56;;;;;;;;;;;16.80;47.00;;;;;;8330577;28;19932;-46
2022/11/22 05:28:57;;;;;;;;;;;16.80;47.00;;;;;;8330538;28;20337;-45
2022/11/22 05:32:58;;;;;;;;;;;16.80;46.90;;;;;;8330422;28;20297;-46
2022/11/22 05:36:58;;;;;;;;;;;16.80;46.90;;;;;;8329891;28;20016;-46
2022/11/22 05:40:59;;;;;;;;;;;16.80;46.90;;;;;;8330749;28;20008;-45
2022/11/22 05:44:59;;;;;;;;;;;16.80;46.90;;;;;;8330146;28;19963;-48
2022/11/22 05:48:59;;;;;;;;;;;16.80;46.90;;;;;;8329953;28;19975;-45
2022/11/22 05:53:01;;;;;;;;;;;16.80;46.90;;;;;;8330009;28;19913;-46
2022/11/22 05:57:02;;;;;;;;;;;16.80;46.90;;;;;;8329947;28;19925;-45
2022/11/22 06:01:03;;;;;;;;;;;16.80;46.90;;;;;;8336298;28;19913;-46
2022/11/22 06:05:04;;;;;;;;;;;16.80;46.90;;;;;;8337006;28;20386;-46
2022/11/22 06:09:04;;;;;;;;;;;16.80;47.00;;;;;;8336456;28;20015;-45
2022/11/22 06:13:05;;;;;;;;;;;16.80;46.90;;;;;;8335867;28;19921;-46
2022/11/22 06:17:05;;;;;;;;;;;16.80;46.90;;;;;;8336132;28;19929;-45
2022/11/22 06:21:07;;;;;;;;;;;16.80;46.90;;;;;;8336578;28;20409;-44
2022/11/22 06:25:07;;;;;;;;;;;16.80;46.90;;;;;;8335637;28;19967;-45
2022/11/22 06:29:08;;;;;;;;;;;16.80;46.90;;;;;;8335951;28;20361;-45
2022/11/22 06:33:08;;;;;;;;;;;16.80;46.90;;;;;;8336065;28;20301;-45
2022/11/22 06:37:09;;;;;;;;;;;16.80;46.80;;;;;;8335160;28;19921;-45
2022/11/22 06:41:11;;;;;;;;;;;16.80;46.90;;;;;;8336015;28;19913;-46
2022/11/22 06:45:11;;;;;;;;;;;16.80;46.90;;;;;;8335368;28;19917;-44
2022/11/22 06:49:12;;;;;;;;;;;16.80;46.90;;;;;;8334965;28;20393;-45
2022/11/22 06:53:13;;;;;;;;;;;16.80;46.90;;;;;;8335303;28;19971;-45
2022/11/22 06:57:14;;;;;;;;;;;16.70;46.90;;;;;;8335166;28;20028;-45
2022/11/22 07:01:19;;;;;;;;;;;16.70;46.90;;;;;;8334856;28;19913;-45
2022/11/22 07:05:19;;;;;;;;;;;16.80;47.00;;;;;;8334851;28;19995;-44
2022/11/22 07:09:19;;;;;;;;;;;16.70;46.90;;;;;;8334387;28;19924;-44
2022/11/22 07:13:20;;;;;;;;;;;16.70;46.90;;;;;;8334283;28;20413;-45
2022/11/22 07:17:20;;;;;;;;;;;16.70;46.90;;;;;;8334441;28;19928;-45
2022/11/22 07:21:22;;;;;;;;;;;16.70;46.90;;;;;;8334413;28;19913;-45
2022/11/22 07:25:22;;;;;;;;;;;16.80;46.90;;;;;;8334218;28;19917;-45
2022/11/22 07:29:22;;;;;;;;;;;16.70;46.80;;;;;;8334257;28;19940;-45
2022/11/22 07:33:23;;;;;;;;;;;16.80;46.90;;;;;;8333529;28;19976;-46
2022/11/22 07:37:23;;;;;;;;;;;16.80;46.90;;;;;;8334000;28;19921;-46
2022/11/22 07:41:24;;;;;;;;;;;16.80;46.90;;;;;;8333956;28;19914;-45
2022/11/22 07:45:24;;;;;;;;;;;16.70;46.90;;;;;;8333304;28;19941;-44
2022/11/22 07:49:25;;;;;;;;;;;16.80;46.90;;;;;;8333494;28;19928;-45
2022/11/22 07:53:25;;;;;;;;;;;16.70;46.90;;;;;;8333425;28;19940;-45
2022/11/22 07:57:26;;;;;;;;;;;16.70;46.90;;;;;;8332845;28;20405;-46
2022/11/22 08:01:26;;;;;;;;;;;16.70;46.90;;;;;;8333387;28;19917;-45
2022/11/22 08:05:27;;;;;;;;;;;16.70;46.90;;;;;;8332099;28;19928;-45
2022/11/22 08:09:27;;;;;;;;;;;16.80;46.90;;;;;;8332255;28;19971;-45
2022/11/22 08:13:29;;;;;;;;;;;16.80;46.90;;;;;;8332854;28;20362;-45
2022/11/22 08:17:29;;;;;;;;;;;16.80;46.80;;;;;;8332752;28;19922;-45
2022/11/22 08:21:29;;;;;;;;;;;16.70;46.80;;;;;;8331360;28;19921;-45
2022/11/22 08:25:30;;;;;;;;;;;16.80;46.90;;;;;;8332240;28;20020;-45
2022/11/22 08:29:30;;;;;;;;;;;16.80;46.80;;;;;;8332064;28;19924;-46
2022/11/22 08:33:31;;;;;;;;;;;16.80;46.90;;;;;;8331744;28;20215;-45
2022/11/22 08:37:32;;;;;;;;;;;16.80;46.90;;;;;;8332422;28;19928;-46
2022/11/22 08:41:32;;;;;;;;;;;16.80;46.80;;;;;;8331877;28;19952;-46
2022/11/22 08:45:33;;;;;;;;;;;16.70;46.80;;;;;;8331316;28;19921;-47
2022/11/22 08:49:33;;;;;;;;;;;16.80;46.80;;;;;;8331443;28;19921;-46
2022/11/22 08:53:35;;;;;;;;;;;16.80;46.80;;;;;;8331546;28;19917;-44
2022/11/22 08:57:35;;;;;;;;;;;16.80;46.90;;;;;;8331039;28;19971;-46
2022/11/22 09:01:36;;;;;;;;;;;16.80;46.80;;;;;;8331202;28;19921;-46
2022/11/22 09:05:36;;;;;;;;;;;16.80;46.80;;;;;;8331227;28;19917;-45
2022/11/22 09:09:37;;;;;;;;;;;16.80;46.80;;;;;;8330469;28;20230;-46
2022/11/22 09:13:37;;;;;;;;;;;16.80;46.80;;;;;;8331008;28;20465;-48
2022/11/22 09:17:38;;;;;;;;;;;16.80;46.80;;;;;;8330970;28;20382;-47
2022/11/22 09:21:38;;;;;;;;;;;16.80;46.80;;;;;;8330111;28;19916;-44
2022/11/22 09:25:38;;;;;;;;;;;16.80;46.80;;;;;;8330429;28;20281;-47
2022/11/22 09:29:39;;;;;;;;;;;16.80;46.80;;;;;;8330643;28;20011;-45
2022/11/22 09:33:40;;;;;;;;;;;16.80;46.80;;;;;;8329924;28;19921;-45
2022/11/22 09:37:41;;;;;;;;;;;16.80;46.70;;;;;;8330490;28;19999;-47
2022/11/22 09:42:09;;;;;;;;;;;16.80;46.80;;;;;;8330264;28;19925;-44
2022/11/22 09:46:12;;;;;;;;;;;16.80;46.70;;;;;;8329464;28;19940;-45
2022/11/22 09:50:29;;;;;;;;;;;16.80;46.80;;;;;;8330116;28;20008;-45
2022/11/22 09:54:37;;;;;;;;;;;16.80;46.70;;;;;;8329749;28;19957;-46
2022/11/22 09:58:37;;;;;;;;;;;16.80;46.70;;;;;;8329988;28;19925;-45
2022/11/22 10:02:40;;;;;;;;;;;16.80;46.70;;;;;;8330252;28;19924;-44
2022/11/22 10:06:42;;;;;;;;;;;16.80;46.70;;;;;;8329361;28;20298;-45
2022/11/22 10:10:42;;;;;;;;;;;16.80;46.70;;;;;;8333091;28;19924;-45
2022/11/22 10:14:46;;;;;;;;;;;16.80;46.70;;;;;;8329679;28;19940;-45
2022/11/22 10:18:53;;;;;;;;;;;16.80;46.70;;;;;;8329201;28;19933;-44
2022/11/22 10:22:54;;;;;;;;;;;16.80;46.70;;;;;;8329806;28;19936;-45
2022/11/22 10:26:56;;;;;;;;;;;16.80;46.70;;;;;;8329601;28;19921;-46
2022/11/22 10:31:26;;;;;;;;;;;16.80;46.70;;;;;;8328954;28;19963;-45
2022/11/22 10:35:29;;;;;;;;;;;16.80;46.70;;;;;;8260244;28;19921;-44
2022/11/22 10:39:47;;;;;;;;;;;16.80;46.60;;;;;;8304623;28;19921;-44
2022/11/22 10:44:13;;;;;;;;;;;16.80;46.60;;;;;;8330673;28;19963;-45
2022/11/22 10:48:32;;;;;;;;;;;16.90;46.70;;;;;;8335918;28;19924;-45
2022/11/22 10:52:54;;;;;;;;;;;16.90;46.60;;;;;;8335272;28;19925;-45
2022/11/22 10:57:21;;;;;;;;;;;16.80;46.60;;;;;;8335394;28;20000;-45
2022/11/22 11:01:24;;;;;;;;;;;16.90;46.60;;;;;;8321440;28;19978;-45
2022/11/22 11:05:31;;;;;;;;;;;16.80;46.50;;;;;;8319044;28;20008;-46
2022/11/22 11:09:52;;;;;;;;;;;16.90;46.60;;;;;;8334362;28;19963;-45
2022/11/22 11:13:53;;;;;;;;;;;16.80;46.60;;;;;;8334309;28;19912;-45
2022/11/22 11:17:59;;;;;;;;;;;16.90;46.60;;;;;;8334864;28;19927;-45
2022/11/22 11:22:06;;;;;;;;;;;16.90;46.60;;;;;;8333995;28;19917;-45
2022/11/22 11:26:26;;;;;;;;;;;16.90;46.60;;;;;;8334317;28;20398;-45
2022/11/22 11:30:27;;;;;;;;;;;16.80;46.50;;;;;;8334082;28;19917;-45
2022/11/22 11:34:28;;;;;;;;;;;16.90;46.50;;;;;;8333917;28;19987;-44
2022/11/22 11:38:30;;;;;;;;;;;16.90;46.60;;;;;;8333970;28;19929;-45
2022/11/22 11:42:34;;;;;;;;;;;16.90;46.40;;;;;;8333470;28;19921;-45
2022/11/22 11:46:40;;;;;;;;;;;16.90;46.50;;;;;;8333601;28;19932;-44
2022/11/22 11:50:40;;;;;;;;;;;16.90;46.40;;;;;;8333912;28;20336;-45
2022/11/22 11:54:45;;;;;;;;;;;16.90;46.40;;;;;;8332628;28;19925;-44
2022/11/22 11:58:50;;;;;;;;;;;16.90;46.30;;;;;;8332741;28;19944;-45
2022/11/22 12:02:55;;;;;;;;;;;16.90;46.40;;;;;;8333221;28;19921;-44
2022/11/22 12:06:58;;;;;;;;;;;16.90;46.40;;;;;;8332548;28;19925;-45
2022/11/22 12:11:01;;;;;;;;;;;16.90;46.30;;;;;;8332893;28;20040;-44
2022/11/22 12:15:06;;;;;;;;;;;16.90;46.30;;;;;;8332999;28;19924;-44
2022/11/22 12:19:25;;;;;;;;;;;16.90;46.30;;;;;;8332406;28;19921;-45
2022/11/22 12:23:31;;;;;;;;;;;16.90;46.30;;;;;;8332854;28;19963;-45
2022/11/22 12:27:32;;;;;;;;;;;16.90;46.30;;;;;;8332066;28;20339;-46
2022/11/22 12:31:45;;;;;;;;;;;16.90;46.30;;;;;;8332340;28;19924;-45
2022/11/22 12:35:48;;;;;;;;;;;16.90;46.30;;;;;;8331587;28;20290;-46
2022/11/22 12:39:50;;;;;;;;;;;16.90;46.30;;;;;;8331552;28;19925;-46
2022/11/22 12:43:55;;;;;;;;;;;16.90;46.30;;;;;;8332331;28;19917;-44
2022/11/22 12:47:57;;;;;;;;;;;16.90;46.30;;;;;;8331705;28;19917;-47
2022/11/22 12:52:07;;;;;;;;;;;16.90;46.30;;;;;;8331212;28;20012;-44
2022/11/22 12:56:13;;;;;;;;;;;16.90;46.30;;;;;;8331435;28;19948;-44
2022/11/22 13:00:21;;;;;;;;;;;16.90;46.30;;;;;;8331417;28;19917;-44
2022/11/22 13:04:24;;;;;;;;;;;16.90;46.20;;;;;;8331132;28;20263;-45
2022/11/22 13:08:27;;;;;;;;;;;16.90;46.20;;;;;;8330979;28;19921;-45
2022/11/22 13:12:33;;;;;;;;;;;16.90;46.20;;;;;;8330632;28;20283;-45
2022/11/22 13:16:33;;;;;;;;;;;16.90;46.30;;;;;;8330835;28;19936;-45
2022/11/22 13:20:36;;;;;;;;;;;16.90;46.20;;;;;;8330875;28;20263;-47
2022/11/22 13:24:40;;;;;;;;;;;16.90;46.20;;;;;;8330203;28;19913;-44
2022/11/22 13:28:41;;;;;;;;;;;16.90;46.20;;;;;;8330821;28;20009;-45
2022/11/22 13:32:41;;;;;;;;;;;17.00;46.30;;;;;;8330695;28;19917;-46
2022/11/22 13:36:42;;;;;;;;;;;17.00;46.20;;;;;;8330032;28;19925;-46
2022/11/22 13:40:43;;;;;;;;;;;17.00;46.20;;;;;;8311816;28;20384;-46
2022/11/22 13:44:56;;;;;;;;;;;17.00;46.20;;;;;;8308442;28;20294;-45
2022/11/22 13:49:07;;;;;;;;;;;17.00;46.20;;;;;;8297680;28;19918;-44
2022/11/22 13:53:25;;;;;;;;;;;17.00;46.20;;;;;;8308773;28;19918;-46
2022/11/22 13:57:33;;;;;;;;;;;17.00;46.30;;;;;;8316520;28;19937;-46
2022/11/22 14:01:34;;;;;;;;;;;17.00;46.20;;;;;;8300069;28;20007;-46
2022/11/22 14:05:36;;;;;;;;;;;17.00;46.20;;;;;;8303210;28;20281;-44
2022/11/22 14:09:44;;;;;;;;;;;17.00;46.20;;;;;;8303405;28;19925;-44
2022/11/22 14:14:20;;;;;;;;;;;17.00;46.20;;;;;;8308603;28;20335;-45
2022/11/22 14:18:23;;;;;;;;;;;17.00;46.10;;;;;;8244306;28;19983;-43
2022/11/22 14:22:23;;;;;;;;;;;17.00;46.20;;;;;;8312543;28;19948;-45
2022/11/22 14:26:29;;;;;;;;;;;17.00;46.20;;;;;;8306429;28;19918;-45
2022/11/22 14:30:37;;;;;;;;;;;17.00;46.10;;;;;;8310276;28;20011;-46
2022/11/22 14:34:58;;;;;;;;;;;17.00;46.10;;;;;;8307406;28;19928;-42
2022/11/22 14:38:58;;;;;;;;;;;17.00;46.10;;;;;;8307953;28;19959;-44
2022/11/22 14:43:00;;;;;;;;;;;17.00;46.10;;;;;;8313580;28;19917;-45
2022/11/22 14:47:03;;;;;;;;;;;17.00;46.20;;;;;;8317397;28;20016;-44
2022/11/22 14:51:03;;;;;;;;;;;17.00;46.20;;;;;;8321616;28;20074;-46
2022/11/22 14:55:05;;;;;;;;;;;17.00;46.30;;;;;;8312995;28;19925;-45
2022/11/22 14:59:24;;;;;;;;;;;17.00;46.20;;;;;;8329539;28;19931;-45
2022/11/22 15:03:24;;;;;;;;;;;17.00;46.30;;;;;;8327205;28;20345;-44
2022/11/22 15:07:37;;;;;;;;;;;17.00;46.20;;;;;;8320190;28;19921;-45
2022/11/22 15:11:55;;;;;;;;;;;17.00;46.20;;;;;;8308250;28;19944;-45
2022/11/22 15:15:59;;;;;;;;;;;17.00;46.30;;;;;;8306067;28;19917;-46
2022/11/22 15:19:59;;;;;;;;;;;17.00;46.30;;;;;;8317028;28;19940;-45
2022/11/22 15:24:00;;;;;;;;;;;17.00;46.30;;;;;;8305729;28;20008;-45
2022/11/22 15:28:00;;;;;;;;;;;16.90;46.20;;;;;;8304820;28;19929;-45
2022/11/22 15:32:05;;;;;;;;;;;17.00;46.30;;;;;;8303596;28;19917;-44
2022/11/22 15:36:27;;;;;;;;;;;17.00;46.30;;;;;;8311195;28;19945;-46
2022/11/22 15:40:30;;;;;;;;;;;17.00;46.30;;;;;;8321237;28;19933;-44
2022/11/22 15:44:31;;;;;;;;;;;16.90;46.20;;;;;;8306652;28;19925;-44
2022/11/22 15:48:32;;;;;;;;;;;17.00;46.30;;;;;;8320723;28;19918;-45
2022/11/22 15:52:36;;;;;;;;;;;16.90;46.30;;;;;;8308341;28;19918;-45
2022/11/22 15:56:41;;;;;;;;;;;16.90;46.30;;;;;;8311633;28;19925;-48
2022/11/22 16:00:42;;;;;;;;;;;17.00;46.30;;;;;;8307423;28;20004;-44
2022/11/22 16:04:47;;;;;;;;;;;16.90;46.30;;;;;;8305546;28;19924;-45
2022/11/22 16:08:48;;;;;;;;;;;16.90;46.30;;;;;;8302947;28;19945;-46
2022/11/22 16:12:50;;;;;;;;;;;16.90;46.30;;;;;;8316774;28;19929;-46
2022/11/22 16:16:51;;;;;;;;;;;16.90;46.30;;;;;;8332406;28;20003;-45
2022/11/22 16:20:57;;;;;;;;;;;16.90;46.30;;;;;;8332348;28;19985;-45
2022/11/22 16:25:17;;;;;;;;;;;16.90;46.30;;;;;;8332467;28;19967;-45
2022/11/22 16:29:34;;;;;;;;;;;16.90;46.30;;;;;;8332232;28;20018;-43
2022/11/22 16:33:34;;;;;;;;;;;16.90;46.30;;;;;;8331683;28;19928;-45
2022/11/22 16:37:35;;;;;;;;;;;16.90;46.30;;;;;;8331862;28;20279;-46
2022/11/22 16:41:35;;;;;;;;;;;16.90;46.30;;;;;;8331594;28;19948;-45
2022/11/22 16:45:36;;;;;;;;;;;16.90;46.20;;;;;;8331555;28;19913;-44
2022/11/22 16:49:37;;;;;;;;;;;16.90;46.30;;;;;;8331302;28;19924;-45
2022/11/22 16:53:44;;;;;;;;;;;16.90;46.30;;;;;;8331747;28;20430;-44
2022/11/22 16:57:45;;;;;;;;;;;16.90;46.30;;;;;;8330826;28;19956;-44
2022/11/22 17:01:45;;;;;;;;;;;16.90;46.30;;;;;;8331220;28;19918;-45
2022/11/22 17:05:46;;;;;;;;;;;16.90;46.30;;;;;;8329952;28;19913;-44
2022/11/22 17:09:46;;;;;;;;;;;16.90;46.40;;;;;;8330474;28;19921;-46
2022/11/22 17:13:47;;;;;;;;;;;16.90;46.30;;;;;;8330735;28;19917;-44
2022/11/22 17:17:47;;;;;;;;;;;16.90;46.30;;;;;;8330567;28;20101;-45
2022/11/22 17:21:48;;;;;;;;;;;16.90;46.30;;;;;;8330209;28;19989;-45
2022/11/22 17:25:48;;;;;;;;;;;16.90;46.40;;;;;;8331068;28;19921;-45
2022/11/22 17:29:49;;;;;;;;;;;16.90;46.30;;;;;;8330365;28;19963;-44
2022/11/22 17:33:50;;;;;;;;;;;16.90;46.40;;;;;;8329876;28;20271;-45
2022/11/22 17:37:54;;;;;;;;;;;16.90;46.40;;;;;;8330446;28;20388;-44
2022/11/22 17:41:54;;;;;;;;;;;16.90;46.40;;;;;;8330325;28;19921;-45
2022/11/22 17:45:55;;;;;;;;;;;16.90;46.30;;;;;;8329660;28;20435;-47
2022/11/22 17:49:55;;;;;;;;;;;16.90;46.40;;;;;;8329651;28;19921;-46
2022/11/22 17:53:59;;;;;;;;;;;16.90;46.40;;;;;;8329065;28;19939;-45
2022/11/22 17:57:59;;;;;;;;;;;16.90;46.40;;;;;;8329314;28;19925;-45
2022/11/22 18:02:00;;;;;;;;;;;16.90;46.40;;;;;;8329782;28;19921;-45
2022/11/22 18:06:00;;;;;;;;;;;16.90;46.40;;;;;;8329906;28;19917;-45
2022/11/22 18:10:01;;;;;;;;;;;16.90;46.90;;;;;;8329151;28;19957;-45
2022/11/22 18:14:01;;;;;;;;;;;16.90;46.30;;;;;;8329725;28;19983;-46
2022/11/22 18:18:02;;;;;;;;;;;16.90;46.40;;;;;;8329522;28;19921;-46
2022/11/22 18:22:02;;;;;;;;;;;16.90;46.40;;;;;;8328932;28;19917;-44
2022/11/22 18:26:04;;;;;;;;;;;16.90;46.40;;;;;;8329802;28;19967;-45
2022/11/22 18:30:05;;;;;;;;;;;16.90;46.40;;;;;;8329039;28;19917;-46
2022/11/22 18:34:06;;;;;;;;;;;16.90;46.40;;;;;;8329133;28;20424;-45
2022/11/22 18:38:06;;;;;;;;;;;16.80;46.30;;;;;;8329241;28;20305;-46
2022/11/22 18:42:10;;;;;;;;;;;16.80;46.30;;;;;;8329195;28;19924;-46
2022/11/22 18:46:11;;;;;;;;;;;16.80;46.30;;;;;;8328851;28;20294;-45
2022/11/22 18:50:11;;;;;;;;;;;16.80;46.30;;;;;;8328828;28;19921;-44
2022/11/22 18:54:12;;;;;;;;;;;16.90;46.40;;;;;;8329005;28;19913;-44
2022/11/22 18:58:12;;;;;;;;;;;16.90;46.40;;;;;;8328596;28;19971;-44
2022/11/22 19:02:13;;;;;;;;;;;16.90;46.40;;;;;;8328903;28;19957;-44
2022/11/22 19:06:15;;;;;;;;;;;16.90;46.40;;;;;;8332079;28;19917;-43
2022/11/22 19:10:16;;;;;;;;;;;16.80;46.30;;;;;;8334237;28;19921;-44
2022/11/22 19:14:16;;;;;;;;;;;16.90;46.40;;;;;;8334357;28;19971;-45
2022/11/22 19:18:18;;;;;;;;;;;16.90;46.40;;;;;;8334372;28;20004;-44
2022/11/22 19:22:19;;;;;;;;;;;16.80;46.30;;;;;;8333837;28;19925;-44
2022/11/22 19:26:21;;;;;;;;;;;16.80;46.30;;;;;;8334522;28;19913;-43
2022/11/22 19:30:22;;;;;;;;;;;16.90;46.40;;;;;;8334336;28;19963;-44
2022/11/22 19:34:23;;;;;;;;;;;16.90;46.40;;;;;;8334014;28;19917;-45
2022/11/22 19:38:24;;;;;;;;;;;16.80;46.40;;;;;;8333702;28;20404;-45
2022/11/22 19:42:25;;;;;;;;;;;16.90;46.40;;;;;;8333383;28;19971;-45
2022/11/22 19:46:26;;;;;;;;;;;16.90;46.40;;;;;;8334165;28;20000;-44
2022/11/22 19:50:26;;;;;;;;;;;16.90;46.40;;;;;;8333201;28;19947;-44
2022/11/22 19:54:27;;;;;;;;;;;16.80;46.30;;;;;;8333044;28;19950;-44
2022/11/22 19:58:27;;;;;;;;;;;16.80;46.30;;;;;;8333554;28;19925;-44
2022/11/22 20:02:28;;;;;;;;;;;16.80;46.30;;;;;;8333197;28;19921;-44
2022/11/22 20:06:29;;;;;;;;;;;16.80;46.30;;;;;;8332866;28;19921;-44
2022/11/22 20:10:29;;;;;;;;;;;16.90;46.40;;;;;;8332366;28;20412;-44
2022/11/22 20:14:31;;;;;;;;;;;16.80;46.40;;;;;;8332773;28;20088;-46
2022/11/22 20:18:31;;;;;;;;;;;16.80;46.40;;;;;;8331292;28;19921;-44
2022/11/22 20:22:32;;;;;;;;;;;16.90;46.40;;;;;;8332532;28;19924;-45
2022/11/22 20:26:33;;;;;;;;;;;16.80;46.40;;;;;;8332672;28;19917;-45
2022/11/22 20:30:33;;;;;;;;;;;16.80;46.40;;;;;;8331937;28;19914;-45
2022/11/22 20:34:34;;;;;;;;;;;16.80;46.40;;;;;;8332303;28;20428;-45
2022/11/22 20:38:35;;;;;;;;;;;16.80;46.40;;;;;;8332230;28;19921;-45
2022/11/22 20:42:36;;;;;;;;;;;16.80;46.40;;;;;;8331553;28;19921;-46
2022/11/22 20:46:37;;;;;;;;;;;16.80;46.40;;;;;;8331969;28;19943;-46
2022/11/22 20:50:37;;;;;;;;;;;16.90;46.40;;;;;;8331685;28;20461;-45
2022/11/22 20:54:37;;;;;;;;;;;16.80;46.30;;;;;;8330923;28;19920;-45
2022/11/22 20:58:38;;;;;;;;;;;16.80;46.40;;;;;;8331616;28;19940;-46
2022/11/22 21:02:39;;;;;;;;;;;16.80;46.40;;;;;;8331203;28;19928;-46
2022/11/22 21:06:39;;;;;;;;;;;16.80;46.40;;;;;;8330857;28;19940;-47
2022/11/22 21:10:40;;;;;;;;;;;16.80;46.40;;;;;;8331037;28;20393;-46
2022/11/22 21:14:40;;;;;;;;;;;16.80;46.40;;;;;;8331047;28;20011;-46
2022/11/22 21:18:41;;;;;;;;;;;16.80;46.40;;;;;;8330455;28;20416;-45
2022/11/22 21:22:41;;;;;;;;;;;16.80;46.40;;;;;;8331066;28;19913;-46
2022/11/22 21:26:42;;;;;;;;;;;16.80;46.40;;;;;;8330677;28;19917;-44
2022/11/22 21:30:42;;;;;;;;;;;16.80;46.40;;;;;;8330009;28;19979;-45
2022/11/22 21:34:43;;;;;;;;;;;16.80;46.40;;;;;;8330334;28;20011;-45
2022/11/22 21:38:43;;;;;;;;;;;16.80;46.40;;;;;;8330584;28;19925;-47
2022/11/22 21:42:44;;;;;;;;;;;16.90;46.40;;;;;;8330066;28;19951;-44
2022/11/22 21:46:44;;;;;;;;;;;16.80;46.40;;;;;;8330456;28;20008;-45
2022/11/22 21:50:45;;;;;;;;;;;16.80;46.40;;;;;;8330036;28;20054;-45
2022/11/22 21:54:46;;;;;;;;;;;16.80;46.30;;;;;;8329385;28;19921;-46
2022/11/22 21:58:46;;;;;;;;;;;16.80;46.40;;;;;;8329961;28;20448;-45
2022/11/22 22:02:47;;;;;;;;;;;16.80;46.40;;;;;;8330090;28;19920;-45
2022/11/22 22:06:47;;;;;;;;;;;16.80;46.30;;;;;;8329272;28;20336;-45
2022/11/22 22:10:48;;;;;;;;;;;16.80;46.30;;;;;;8336316;28;20405;-45
2022/11/22 22:14:48;;;;;;;;;;;16.80;46.40;;;;;;8328349;28;19913;-45
2022/11/22 22:18:49;;;;;;;;;;;16.80;46.30;;;;;;8329061;28;19924;-45
2022/11/22 22:22:49;;;;;;;;;;;16.80;46.40;;;;;;8329889;28;20306;-46
2022/11/22 22:26:50;;;;;;;;;;;16.80;46.50;;;;;;8329630;28;19928;-45
2022/11/22 22:30:50;;;;;;;;;;;16.80;46.40;;;;;;8329081;28;19917;-45
2022/11/22 22:34:51;;;;;;;;;;;16.80;46.40;;;;;;8329447;28;19924;-45
2022/11/22 22:38:52;;;;;;;;;;;16.80;46.40;;;;;;8329369;28;19991;-45
2022/11/22 22:42:53;;;;;;;;;;;16.80;46.40;;;;;;8334803;28;19963;-46
2022/11/22 22:46:53;;;;;;;;;;;16.80;46.40;;;;;;8335622;28;19917;-45
2022/11/22 22:50:54;;;;;;;;;;;16.80;46.50;;;;;;8335371;28;20434;-46
2022/11/22 22:54:54;;;;;;;;;;;16.80;46.50;;;;;;8334886;28;20426;-46
2022/11/22 22:58:55;;;;;;;;;;;16.80;46.40;;;;;;8335246;28;19932;-46
2022/11/22 23:02:56;;;;;;;;;;;16.80;46.40;;;;;;8334579;28;19914;-45
2022/11/22 23:06:56;;;;;;;;;;;16.80;46.40;;;;;;8333200;28;20378;-45
2022/11/22 23:11:08;;;;;;;;;;;16.90;46.50;;;;;;8334868;28;19956;-45
2022/11/22 23:15:08;;;;;;;;;;;16.90;46.40;;;;;;8334759;28;20384;-46
2022/11/22 23:19:09;;;;;;;;;;;16.90;46.40;;;;;;8334012;28;19929;-44
2022/11/22 23:23:09;;;;;;;;;;;16.90;46.40;;;;;;8334883;28;19913;-44
2022/11/22 23:27:10;;;;;;;;;;;16.90;46.40;;;;;;8334203;28;19924;-45
2022/11/22 23:31:14;;;;;;;;;;;16.90;46.40;;;;;;8333711;28;19917;-44
2022/11/22 23:35:15;;;;;;;;;;;16.90;46.40;;;;;;8334134;28;20024;-44
2022/11/22 23:39:15;;;;;;;;;;;16.90;46.40;;;;;;8334028;28;19925;-45